createdAt,value
2019-04-04T00:01:48.062Z,75.75
2019-04-04T00:04:22.228Z,75.90
2019-04-04T00:06:57.625Z,76.10
2019-04-04T00:09:27.711Z,75.94
2019-04-04T00:11:59.376Z,75.87
2019-04-04T00:14:30.870Z,75.99
2019-04-04T00:17:02.523Z,76.17
2019-04-04T00:19:33.925Z,76.00
2019-04-04T00:22:05.572Z,75.83
2019-04-04T00:24:39.352Z,76.22
2019-04-04T00:27:11.166Z,76.02
2019-04-04T00:29:43.104Z,76.02
2019-04-04T00:32:14.718Z,76.65
2019-04-04T00:34:46.374Z,76.28
2019-04-04T00:37:17.842Z,76.91
2019-04-04T00:39:49.109Z,76.51
2019-04-04T00:42:20.383Z,76.34
2019-04-04T00:44:52.031Z,76.53
2019-04-04T00:47:23.706Z,77.36
2019-04-04T00:49:55.015Z,76.85
2019-04-04T00:52:26.581Z,76.79
2019-04-04T00:54:58.268Z,76.91
2019-04-04T00:57:29.575Z,77.41
2019-04-04T01:00:00.880Z,77.89
2019-04-04T01:02:32.829Z,77.86
2019-04-04T01:05:04.188Z,77.98
2019-04-04T01:07:35.902Z,77.43
2019-04-04T01:10:09.239Z,76.92
2019-04-04T01:12:41.623Z,77.22
2019-04-04T01:15:13.148Z,77.27
2019-04-04T01:17:47.106Z,78.34
2019-04-04T01:20:20.347Z,77.39
2019-04-04T01:22:51.828Z,76.81
2019-04-04T01:25:23.839Z,77.83
2019-04-04T01:27:55.886Z,77.47
2019-04-04T01:30:27.304Z,77.57
2019-04-04T01:32:58.587Z,77.45
2019-04-04T01:35:29.852Z,77.20
2019-04-04T01:38:01.167Z,77.20
2019-04-04T01:40:34.656Z,77.83
2019-04-04T01:43:08.823Z,78.28
2019-04-04T01:45:39.507Z,77.41
2019-04-04T01:48:11.177Z,77.15
2019-04-04T01:50:42.848Z,77.61
2019-04-04T01:53:14.806Z,76.91
2019-04-04T01:55:46.843Z,78.65
2019-04-04T01:58:18.172Z,79.73
2019-04-04T02:00:49.492Z,77.69
2019-04-04T02:03:22.664Z,78.57
2019-04-04T02:05:56.223Z,79.27
2019-04-04T02:08:31.696Z,78.62
2019-04-04T02:11:05.482Z,78.99
2019-04-04T02:13:38.879Z,77.76
2019-04-04T02:16:10.561Z,77.66
2019-04-04T02:18:42.311Z,81.11
2019-04-04T02:21:13.624Z,82.49
2019-04-04T02:23:44.978Z,82.47
2019-04-04T02:26:16.671Z,80.76
2019-04-04T02:28:48.352Z,80.70
2019-04-04T02:31:21.038Z,81.96
2019-04-04T02:33:54.302Z,81.87
2019-04-04T02:36:25.550Z,82.74
2019-04-04T02:39:10.579Z,84.08
2019-04-04T02:41:42.046Z,83.80
2019-04-04T02:44:13.801Z,83.40
2019-04-04T02:46:45.834Z,84.57
2019-04-04T02:49:17.252Z,83.73
2019-04-04T02:51:48.497Z,84.65
2019-04-04T02:54:24.228Z,84.58
2019-04-04T02:56:53.092Z,84.34
2019-04-04T02:59:24.483Z,83.79
2019-04-04T03:01:56.413Z,84.98
2019-04-04T03:04:28.139Z,85.40
2019-04-04T03:06:59.764Z,84.76
2019-04-04T03:09:31.100Z,83.74
2019-04-04T03:12:02.391Z,82.35
2019-04-04T03:14:37.404Z,80.72
2019-04-04T03:17:08.532Z,81.34
2019-04-04T03:19:40.755Z,81.08
2019-04-04T03:22:12.739Z,80.09
2019-04-04T03:24:45.128Z,81.09
2019-04-04T03:27:16.782Z,81.08
2019-04-04T03:29:48.417Z,82.78
2019-04-04T03:32:19.695Z,82.19
2019-04-04T03:34:54.451Z,82.40
2019-04-04T03:37:25.739Z,81.98
2019-04-04T03:39:57.043Z,83.94
2019-04-04T03:42:28.471Z,84.51
2019-04-04T03:45:00.401Z,85.24
2019-04-04T03:47:32.157Z,84.92
2019-04-04T03:50:03.452Z,83.14
2019-04-04T03:52:34.721Z,82.48
2019-04-04T03:55:07.140Z,82.04
2019-04-04T03:57:38.749Z,81.67
2019-04-04T04:00:13.932Z,81.20
2019-04-04T04:02:45.256Z,81.33
2019-04-04T04:05:30.938Z,81.91
2019-04-04T04:08:01.133Z,81.67
2019-04-04T04:10:33.824Z,81.07
2019-04-04T04:13:05.587Z,81.60
2019-04-04T04:15:36.864Z,81.03
2019-04-04T04:18:08.496Z,79.97
2019-04-04T04:20:39.793Z,79.96
2019-04-04T04:23:11.077Z,81.01
2019-04-04T04:25:45.005Z,80.57
2019-04-04T04:28:19.809Z,81.42
2019-04-04T04:30:49.321Z,81.60
2019-04-04T04:33:20.658Z,81.05
2019-04-04T04:35:52.622Z,80.78
2019-04-04T04:38:26.878Z,80.82
2019-04-04T04:40:57.293Z,80.61
2019-04-04T04:43:32.393Z,80.70
2019-04-04T04:46:01.543Z,81.15
2019-04-04T04:48:34.195Z,81.38
2019-04-04T04:51:05.617Z,81.14
2019-04-04T04:53:37.065Z,80.49
2019-04-04T04:56:08.514Z,80.52
2019-04-04T04:58:42.128Z,81.53
2019-04-04T05:01:13.225Z,82.10
2019-04-04T05:03:44.574Z,80.84
2019-04-04T05:06:15.925Z,81.81
2019-04-04T05:08:48.284Z,80.91
2019-04-04T05:11:20.212Z,80.61
2019-04-04T05:13:52.520Z,81.02
2019-04-04T05:16:23.875Z,80.55
2019-04-04T05:18:55.896Z,80.10
2019-04-04T05:21:28.835Z,81.71
2019-04-04T05:24:00.294Z,81.71
2019-04-04T05:26:32.265Z,81.13
2019-04-04T05:29:05.099Z,80.80
2019-04-04T05:31:36.366Z,80.37
2019-04-04T05:34:07.723Z,79.79
2019-04-04T05:36:39.098Z,79.66
2019-04-04T05:39:11.031Z,80.29
2019-04-04T05:41:42.752Z,77.69
2019-04-04T05:44:14.424Z,80.35
2019-04-04T05:46:45.747Z,80.27
2019-04-04T05:49:17.089Z,80.58
2019-04-04T05:51:49.050Z,80.11
2019-04-04T05:54:20.447Z,80.25
2019-04-04T05:56:51.762Z,80.59
2019-04-04T05:59:23.922Z,80.40
2019-04-04T06:01:56.530Z,80.00
2019-04-04T06:04:27.833Z,79.91
2019-04-04T06:06:59.138Z,79.76
2019-04-04T06:09:31.161Z,79.76
2019-04-04T06:12:02.443Z,79.93
2019-04-04T06:14:33.611Z,79.34
2019-04-04T06:17:07.170Z,79.12
2019-04-04T06:19:38.579Z,79.12
2019-04-04T06:22:10.606Z,78.53
2019-04-04T06:24:42.613Z,78.85
2019-04-04T06:27:13.923Z,79.02
2019-04-04T06:29:47.603Z,79.57
2019-04-04T06:32:18.450Z,78.15
2019-04-04T06:34:50.109Z,77.27
2019-04-04T06:37:21.413Z,76.59
2019-04-04T06:39:54.358Z,76.65
2019-04-04T06:42:25.687Z,75.78
2019-04-04T06:44:57.537Z,77.88
2019-04-04T06:47:32.268Z,78.33
2019-04-04T06:50:02.900Z,76.98
2019-04-04T06:52:34.536Z,75.28
2019-04-04T06:55:06.044Z,76.45
2019-04-04T06:57:37.782Z,76.55
2019-04-04T07:00:11.073Z,75.84
2019-04-04T07:02:42.338Z,76.57
2019-04-04T07:05:14.281Z,76.62
2019-04-04T07:07:46.723Z,76.58
2019-04-04T07:10:21.032Z,76.66
2019-04-04T07:12:51.308Z,76.79
2019-04-04T07:15:23.062Z,74.93
2019-04-04T07:17:55.184Z,75.12
2019-04-04T07:20:28.367Z,76.16
2019-04-04T07:22:59.446Z,76.67
2019-04-04T07:25:31.476Z,75.36
2019-04-04T07:28:03.060Z,75.46
2019-04-04T07:30:34.643Z,77.28
2019-04-04T07:33:06.297Z,76.53
2019-04-04T07:35:38.458Z,76.38
2019-04-04T07:38:10.249Z,76.07
2019-04-04T07:40:41.570Z,76.34
2019-04-04T07:43:12.910Z,77.41
2019-04-04T07:45:44.179Z,76.32
2019-04-04T07:48:17.843Z,74.54
2019-04-04T07:50:51.238Z,75.30
2019-04-04T07:53:21.324Z,75.12
2019-04-04T07:55:52.576Z,76.27
2019-04-04T07:58:23.953Z,77.42
2019-04-04T08:00:55.993Z,75.83
2019-04-04T08:03:27.653Z,75.85
2019-04-04T08:05:58.953Z,75.58
2019-04-04T08:08:30.227Z,73.85
2019-04-04T08:11:01.478Z,74.77
2019-04-04T08:13:32.858Z,73.88
2019-04-04T08:16:04.695Z,74.19
2019-04-04T08:18:36.010Z,74.71
2019-04-04T08:21:07.704Z,74.91
2019-04-04T08:23:39.129Z,74.71
2019-04-04T08:26:10.385Z,74.45
2019-04-04T08:28:42.054Z,74.39
2019-04-04T08:31:13.344Z,74.90
2019-04-04T08:33:44.688Z,74.71
2019-04-04T08:36:16.002Z,75.36
2019-04-04T08:38:47.313Z,74.55
2019-04-04T08:41:19.514Z,74.11
2019-04-04T08:43:50.739Z,74.17
2019-04-04T08:46:22.716Z,73.64
2019-04-04T08:48:53.980Z,73.25
2019-04-04T08:51:25.318Z,73.94
2019-04-04T08:53:56.675Z,73.45
2019-04-04T08:56:28.401Z,73.25
2019-04-04T08:59:00.112Z,71.97
2019-04-04T09:01:32.143Z,73.25
2019-04-04T09:04:03.765Z,73.44
2019-04-04T09:06:35.862Z,73.41
2019-04-04T09:09:09.585Z,73.93
2019-04-04T09:11:40.848Z,73.72
2019-04-04T09:14:12.483Z,74.15
2019-04-04T09:16:44.110Z,74.88
2019-04-04T09:19:15.371Z,72.68
2019-04-04T09:21:46.745Z,72.90
2019-04-04T09:24:18.056Z,72.87
2019-04-04T09:26:49.710Z,73.21
2019-04-04T09:29:22.077Z,72.87
2019-04-04T09:31:53.360Z,73.42
2019-04-04T09:34:25.514Z,72.71
2019-04-04T09:36:57.177Z,72.32
2019-04-04T09:39:28.706Z,72.46
2019-04-04T09:42:01.202Z,72.22
2019-04-04T09:44:33.086Z,72.65
2019-04-04T09:47:05.726Z,71.53
2019-04-04T09:49:37.572Z,71.66
2019-04-04T09:52:09.231Z,72.15
2019-04-04T09:54:40.735Z,71.68
2019-04-04T09:57:11.968Z,71.61
2019-04-04T09:59:44.502Z,70.55
2019-04-04T10:02:16.265Z,70.41
2019-04-04T10:04:47.923Z,70.56
2019-04-04T10:07:19.217Z,70.35
2019-04-04T10:09:50.781Z,69.76
2019-04-04T10:12:22.123Z,70.57
2019-04-04T10:14:53.824Z,70.13
2019-04-04T10:17:25.571Z,69.85
2019-04-04T10:19:57.020Z,69.35
2019-04-04T10:22:29.131Z,69.42
2019-04-04T10:25:00.372Z,69.27
2019-04-04T10:27:31.617Z,70.94
2019-04-04T10:30:02.912Z,70.10
2019-04-04T10:32:34.523Z,71.02
2019-04-04T10:35:06.547Z,69.44
2019-04-04T10:37:38.522Z,70.11
2019-04-04T10:40:10.334Z,70.63
2019-04-04T10:42:42.047Z,69.17
2019-04-04T10:45:13.505Z,69.97
2019-04-04T10:47:44.754Z,69.07
2019-04-04T10:50:16.334Z,70.32
2019-04-04T10:52:47.653Z,69.61
2019-04-04T10:55:19.428Z,68.62
2019-04-04T10:57:51.253Z,67.89
2019-04-04T11:00:23.824Z,68.68
2019-04-04T11:02:55.973Z,68.65
2019-04-04T11:05:27.303Z,68.69
2019-04-04T11:07:59.788Z,69.74
2019-04-04T11:10:31.299Z,68.22
2019-04-04T11:13:03.150Z,68.08
2019-04-04T11:15:35.010Z,69.03
2019-04-04T11:18:06.307Z,68.49
2019-04-04T11:20:38.417Z,69.36
2019-04-04T11:23:09.806Z,69.62
2019-04-04T11:25:41.376Z,67.94
2019-04-04T11:28:13.698Z,67.18
2019-04-04T11:30:44.997Z,66.83
2019-04-04T11:33:16.248Z,66.68
2019-04-04T11:35:47.799Z,66.63
2019-04-04T11:38:19.398Z,66.75
2019-04-04T11:40:50.685Z,66.81
2019-04-04T11:43:22.278Z,66.30
2019-04-04T11:45:56.126Z,66.07
2019-04-04T11:48:27.782Z,66.41
2019-04-04T11:50:59.602Z,66.12
2019-04-04T11:53:30.904Z,67.27
2019-04-04T11:56:02.237Z,66.09
2019-04-04T11:58:33.888Z,66.98
2019-04-04T12:01:07.724Z,66.48
2019-04-04T12:03:40.165Z,67.22
2019-04-04T12:06:11.792Z,65.97
2019-04-04T12:08:43.110Z,67.31
2019-04-04T12:11:15.614Z,66.29
2019-04-04T12:13:50.424Z,65.34
2019-04-04T12:16:20.989Z,64.94
2019-04-04T12:18:53.014Z,64.84
2019-04-04T12:21:24.307Z,65.93
2019-04-04T12:23:55.626Z,67.56
2019-04-04T12:26:29.280Z,68.43
2019-04-04T12:29:01.708Z,67.76
2019-04-04T12:31:33.019Z,67.33
2019-04-04T12:34:05.028Z,67.06
2019-04-04T12:36:36.982Z,66.73
2019-04-04T12:39:10.559Z,66.27
2019-04-04T12:41:42.256Z,67.34
2019-04-04T12:44:13.547Z,68.28
2019-04-04T12:46:45.309Z,68.51
2019-04-04T12:49:16.624Z,68.87
2019-04-04T12:51:48.484Z,68.23
2019-04-04T12:54:19.830Z,68.58
2019-04-04T12:56:51.557Z,68.52
2019-04-04T12:59:25.136Z,68.70
2019-04-04T13:01:56.454Z,68.94
2019-04-04T13:04:31.985Z,67.89
2019-04-04T13:07:00.669Z,66.61
2019-04-04T13:09:32.695Z,66.79
2019-04-04T13:12:04.166Z,67.37
2019-04-04T13:14:35.523Z,67.38
2019-04-04T13:17:06.944Z,66.61
2019-04-04T13:19:39.621Z,66.87
2019-04-04T13:22:11.100Z,66.63
2019-04-04T13:24:42.440Z,66.68
2019-04-04T13:27:14.422Z,66.41
2019-04-04T13:29:45.673Z,65.87
2019-04-04T13:32:16.969Z,65.89
2019-04-04T13:34:58.565Z,65.75
2019-04-04T13:37:21.044Z,67.36
2019-04-04T13:39:52.688Z,67.62
2019-04-04T13:42:24.030Z,67.73
2019-04-04T13:44:55.708Z,68.46
2019-04-04T13:47:27.011Z,68.13
2019-04-04T13:49:58.368Z,66.52
2019-04-04T13:52:30.404Z,67.62
2019-04-04T13:55:01.715Z,67.21
2019-04-04T13:57:33.072Z,66.35
2019-04-04T14:00:06.122Z,67.36
2019-04-04T14:02:56.311Z,68.22
2019-04-04T14:05:40.268Z,67.05
2019-04-04T14:08:37.116Z,66.75
2019-04-04T14:11:42.191Z,66.55
2019-04-04T14:14:29.053Z,68.29
2019-04-04T14:17:21.308Z,68.55
2019-04-04T14:20:13.785Z,69.20
2019-04-04T14:23:10.361Z,67.62
2019-04-04T14:25:59.687Z,66.52
2019-04-04T14:28:51.079Z,65.78
2019-04-04T14:31:33.734Z,67.34
2019-04-04T14:34:37.923Z,66.03
2019-04-04T14:37:27.278Z,65.87
2019-04-04T14:40:01.880Z,65.96
2019-04-04T14:42:33.289Z,65.15
2019-04-04T14:45:25.866Z,65.50
2019-04-04T14:48:18.565Z,65.61
2019-04-04T14:51:11.192Z,65.08
2019-04-04T14:54:16.375Z,65.38
2019-04-04T14:57:16.983Z,64.87
2019-04-04T15:00:06.058Z,64.88
2019-04-04T15:03:13.774Z,65.74
2019-04-04T15:06:08.475Z,65.37
2019-04-04T15:09:22.402Z,65.72
2019-04-04T15:12:07.353Z,64.77
2019-04-04T15:14:58.496Z,64.40
2019-04-04T15:17:50.921Z,64.03
2019-04-04T15:20:47.312Z,64.09
2019-04-04T15:23:34.249Z,64.00
2019-04-04T15:26:25.077Z,64.22
2019-04-04T15:29:21.066Z,63.52
2019-04-04T15:32:04.478Z,63.67
2019-04-04T15:34:58.929Z,63.59
2019-04-04T15:37:42.853Z,64.30
2019-04-04T15:40:33.413Z,64.29
2019-04-04T15:43:48.367Z,64.87
2019-04-04T15:46:45.247Z,64.55
2019-04-04T15:49:48.954Z,64.60
2019-04-04T15:52:46.073Z,65.58
2019-04-04T15:55:50.132Z,65.74
2019-04-04T15:58:52.163Z,66.08
2019-04-04T16:01:42.240Z,66.00
2019-04-04T16:04:34.655Z,66.70
2019-04-04T16:07:44.601Z,67.18
2019-04-04T16:10:31.017Z,66.67
2019-04-04T16:13:31.035Z,66.90
2019-04-04T16:16:31.891Z,66.33
2019-04-04T16:19:33.104Z,66.08
2019-04-04T16:22:21.606Z,66.72
2019-04-04T16:25:12.625Z,67.77
2019-04-04T16:28:00.536Z,67.77
2019-04-04T16:31:01.203Z,68.09
2019-04-04T16:33:43.117Z,68.50
2019-04-04T16:37:04.463Z,69.23
2019-04-04T16:39:50.782Z,69.74
2019-04-04T16:42:20.562Z,69.67
2019-04-04T16:44:52.137Z,70.54
2019-04-04T16:47:23.452Z,70.66
2019-04-04T16:49:54.868Z,70.07
2019-04-04T16:52:26.534Z,69.58
2019-04-04T16:54:57.926Z,70.06
2019-04-04T16:57:29.658Z,70.35
2019-04-04T17:00:00.964Z,68.90
2019-04-04T17:02:32.295Z,69.40
2019-04-04T17:05:04.456Z,69.51
2019-04-04T17:07:35.867Z,70.24
2019-04-04T17:10:08.978Z,69.32
2019-04-04T17:12:40.323Z,70.70
2019-04-04T17:15:13.284Z,70.64
2019-04-04T17:17:44.701Z,70.91
2019-04-04T17:20:16.554Z,71.08
2019-04-04T17:22:48.258Z,71.47
2019-04-04T17:25:19.908Z,71.30
2019-04-04T17:27:52.151Z,72.34
2019-04-04T17:30:23.410Z,73.15
2019-04-04T17:32:55.775Z,72.49
2019-04-04T17:35:27.427Z,72.51
2019-04-04T17:37:58.771Z,74.10
2019-04-04T17:40:30.200Z,73.54
2019-04-04T17:43:01.504Z,74.58
2019-04-04T17:45:32.858Z,74.39
2019-04-04T17:48:05.083Z,74.85
2019-04-04T17:50:36.789Z,74.89
2019-04-04T17:53:08.726Z,74.84
2019-04-04T17:55:40.421Z,74.38
2019-04-04T17:58:12.779Z,75.22
2019-04-04T18:00:44.190Z,75.01
2019-04-04T18:03:16.449Z,75.18
2019-04-04T18:05:47.874Z,75.60
2019-04-04T18:08:19.283Z,75.41
2019-04-04T18:10:50.544Z,75.46
2019-04-04T18:13:21.884Z,75.12
2019-04-04T18:15:55.015Z,75.08
2019-04-04T18:18:26.343Z,74.59
2019-04-04T18:20:58.050Z,75.56
2019-04-04T18:23:29.781Z,74.40
2019-04-04T18:26:01.566Z,74.52
2019-04-04T18:28:33.233Z,75.58
2019-04-04T18:31:05.014Z,75.14
2019-04-04T18:33:36.696Z,75.83
2019-04-04T18:36:08.286Z,75.43
2019-04-04T18:38:40.214Z,75.00
2019-04-04T18:41:11.535Z,75.32
2019-04-04T18:43:42.901Z,74.91
2019-04-04T18:46:14.186Z,74.95
2019-04-04T18:48:46.093Z,75.72
2019-04-04T18:51:17.573Z,75.30
2019-04-04T18:53:49.294Z,75.87
2019-04-04T18:56:21.080Z,74.72
2019-04-04T18:58:52.450Z,75.67
2019-04-04T19:01:23.805Z,76.31
2019-04-04T19:03:55.982Z,76.00
2019-04-04T19:06:27.721Z,75.48
2019-04-04T19:09:00.428Z,75.36
2019-04-04T19:11:31.816Z,76.10
2019-04-04T19:14:03.164Z,75.37
2019-04-04T19:16:35.271Z,75.51
2019-04-04T19:19:06.679Z,75.95
2019-04-04T19:21:38.028Z,75.35
2019-04-04T19:24:09.398Z,75.38
2019-04-04T19:26:40.829Z,75.50
2019-04-04T19:29:12.537Z,76.11
2019-04-04T19:31:46.201Z,76.81
2019-04-04T19:34:17.754Z,76.19
2019-04-04T19:36:49.059Z,76.22
2019-04-04T19:39:20.799Z,75.84
2019-04-04T19:41:52.901Z,75.82
2019-04-04T19:44:24.480Z,76.16
2019-04-04T19:46:55.856Z,75.42
2019-04-04T19:49:27.806Z,75.79
2019-04-04T19:51:59.497Z,76.03
2019-04-04T19:54:31.242Z,74.43
2019-04-04T19:57:02.610Z,74.43
2019-04-04T19:59:33.921Z,76.28
2019-04-04T20:02:05.234Z,76.34
2019-04-04T20:04:36.522Z,75.23
2019-04-04T20:07:08.213Z,75.23
2019-04-04T20:09:39.513Z,76.23
2019-04-04T20:12:14.631Z,76.74
2019-04-04T20:14:45.951Z,75.17
2019-04-04T20:17:17.250Z,76.62
2019-04-04T20:19:48.644Z,76.72
2019-04-04T20:22:19.989Z,76.66
2019-04-04T20:24:51.329Z,77.36
2019-04-04T20:27:22.769Z,78.02
2019-04-04T20:29:54.880Z,79.44
2019-04-04T20:32:26.343Z,78.55
2019-04-04T20:34:57.692Z,79.09
2019-04-04T20:37:29.022Z,78.98
2019-04-04T20:40:09.744Z,79.31
2019-04-04T20:42:41.469Z,80.12
2019-04-04T20:45:13.104Z,81.99
2019-04-04T20:47:44.408Z,80.34
2019-04-04T20:50:15.913Z,79.92
2019-04-04T20:52:48.180Z,80.97
2019-04-04T20:55:19.506Z,81.49
2019-04-04T20:57:51.226Z,79.95
2019-04-04T21:00:23.508Z,80.01
2019-04-04T21:02:55.717Z,81.35
2019-04-04T21:05:27.212Z,81.21
2019-04-04T21:07:59.008Z,80.96
2019-04-04T21:10:30.361Z,80.09
2019-04-04T21:13:01.888Z,81.23
2019-04-04T21:15:37.032Z,80.81
2019-04-04T21:18:08.493Z,81.75
2019-04-04T21:20:40.291Z,80.46
2019-04-04T21:23:11.597Z,81.57
2019-04-04T21:25:43.247Z,81.50
2019-04-04T21:28:15.567Z,81.46
2019-04-04T21:30:47.471Z,81.45
2019-04-04T21:33:19.842Z,80.39
2019-04-04T21:35:51.222Z,80.14
2019-04-04T21:38:22.696Z,80.38
2019-04-04T21:40:54.429Z,82.13
2019-04-04T21:43:26.993Z,80.67
2019-04-04T21:45:59.163Z,81.23
2019-04-04T21:48:30.941Z,81.85
2019-04-04T21:51:02.266Z,82.16
2019-04-04T21:53:33.933Z,82.10
2019-04-04T21:56:05.335Z,82.75
2019-04-04T21:58:37.586Z,83.19
2019-04-04T22:01:09.245Z,82.91
2019-04-04T22:03:40.982Z,81.97
2019-04-04T22:06:12.713Z,82.45
2019-04-04T22:08:46.998Z,82.31
2019-04-04T22:11:18.815Z,82.61
2019-04-04T22:13:50.176Z,81.68
2019-04-04T22:16:21.914Z,83.25
2019-04-04T22:18:53.299Z,82.34
2019-04-04T22:21:25.212Z,82.42
2019-04-04T22:23:56.881Z,82.03
2019-04-04T22:26:29.610Z,81.08
2019-04-04T22:29:01.013Z,83.05
2019-04-04T22:31:32.314Z,81.63
2019-04-04T22:34:03.626Z,81.38
2019-04-04T22:36:34.987Z,81.35
2019-04-04T22:39:08.712Z,81.61
2019-04-04T22:41:40.027Z,79.86
2019-04-04T22:44:11.451Z,80.76
2019-04-04T22:46:42.744Z,80.65
2019-04-04T22:49:14.404Z,81.00
2019-04-04T22:51:45.761Z,80.31
2019-04-04T22:54:17.828Z,81.48
2019-04-04T22:56:49.489Z,81.63
2019-04-04T22:59:21.291Z,81.52
2019-04-04T23:01:52.608Z,80.24
2019-04-04T23:04:23.942Z,80.70
2019-04-04T23:06:55.620Z,80.53
2019-04-04T23:09:27.289Z,81.34
2019-04-04T23:11:58.643Z,81.20
2019-04-04T23:14:30.469Z,81.49
2019-04-04T23:17:02.062Z,81.27
2019-04-04T23:19:33.329Z,78.85
2019-04-04T23:22:04.670Z,81.22
2019-04-04T23:24:36.379Z,80.83
2019-04-04T23:27:07.645Z,79.37
2019-04-04T23:29:38.993Z,80.92
2019-04-04T23:32:10.703Z,79.65
2019-04-04T23:34:42.058Z,79.28
2019-04-04T23:37:13.414Z,79.23
2019-04-04T23:39:45.463Z,79.61
2019-04-04T23:42:16.866Z,79.60
2019-04-04T23:45:00.179Z,78.92
2019-04-04T23:47:21.676Z,80.11
2019-04-04T23:49:52.979Z,78.62
2019-04-04T23:52:24.910Z,79.12
2019-04-04T23:54:56.536Z,77.35
2019-04-04T23:57:28.284Z,79.24
